sensor_id;sensor_type;location;lat;lon;timestamp;P1;durP1;ratioP1;P2;durP2;ratioP2
6207;SDS011;3137;51.550;7.060;2023-04-22T00:00:53;8.93;;;8.63;;
6207;SDS011;3137;51.550;7.060;2023-04-22T00:03:20;9.80;;;9.30;;
6207;SDS011;3137;51.550;7.060;2023-04-22T00:05:48;10.33;;;9.77;;
6207;SDS011;3137;51.550;7.060;2023-04-22T00:08:14;9.80;;;9.40;;
6207;SDS011;3137;51.550;7.060;2023-04-22T00:10:41;11.10;;;10.57;;
6207;SDS011;3137;51.550;7.060;2023-04-22T00:13:07;12.93;;;11.93;;
6207;SDS011;3137;51.550;7.060;2023-04-22T00:15:33;13.83;;;12.63;;
6207;SDS011;3137;51.550;7.060;2023-04-22T00:18:00;13.00;;;11.97;;
6207;SDS011;3137;51.550;7.060;2023-04-22T00:20:27;14.67;;;13.47;;
6207;SDS011;3137;51.550;7.060;2023-04-22T00:22:54;14.57;;;13.47;;
6207;SDS011;3137;51.550;7.060;2023-04-22T00:25:21;16.57;;;14.87;;
6207;SDS011;3137;51.550;7.060;2023-04-22T00:27:47;15.83;;;14.27;;
6207;SDS011;3137;51.550;7.060;2023-04-22T00:30:14;15.80;;;14.33;;
6207;SDS011;3137;51.550;7.060;2023-04-22T00:32:40;15.93;;;14.47;;
6207;SDS011;3137;51.550;7.060;2023-04-22T00:35:07;16.27;;;14.73;;
6207;SDS011;3137;51.550;7.060;2023-04-22T00:37:34;15.50;;;14.10;;
6207;SDS011;3137;51.550;7.060;2023-04-22T00:40:00;15.77;;;14.43;;
6207;SDS011;3137;51.550;7.060;2023-04-22T00:42:27;13.77;;;12.77;;
6207;SDS011;3137;51.550;7.060;2023-04-22T00:44:54;15.03;;;13.67;;
6207;SDS011;3137;51.550;7.060;2023-04-22T00:47:21;14.50;;;12.97;;
6207;SDS011;3137;51.550;7.060;2023-04-22T00:49:52;13.73;;;12.60;;
6207;SDS011;3137;51.550;7.060;2023-04-22T00:52:18;13.43;;;12.27;;
6207;SDS011;3137;51.550;7.060;2023-04-22T00:54:45;14.57;;;13.33;;
6207;SDS011;3137;51.550;7.060;2023-04-22T00:57:11;14.40;;;12.97;;
6207;SDS011;3137;51.550;7.060;2023-04-22T00:59:38;14.07;;;12.67;;
6207;SDS011;3137;51.550;7.060;2023-04-22T01:02:05;13.60;;;12.57;;
6207;SDS011;3137;51.550;7.060;2023-04-22T01:04:33;15.67;;;14.07;;
6207;SDS011;3137;51.550;7.060;2023-04-22T01:07:00;16.17;;;14.43;;
6207;SDS011;3137;51.550;7.060;2023-04-22T01:09:27;17.33;;;15.53;;
6207;SDS011;3137;51.550;7.060;2023-04-22T01:11:53;16.87;;;15.23;;
6207;SDS011;3137;51.550;7.060;2023-04-22T01:14:21;16.80;;;15.27;;
6207;SDS011;3137;51.550;7.060;2023-04-22T01:16:48;18.20;;;16.33;;
6207;SDS011;3137;51.550;7.060;2023-04-22T01:19:19;19.77;;;15.73;;
6207;SDS011;3137;51.550;7.060;2023-04-22T01:21:45;18.87;;;16.70;;
6207;SDS011;3137;51.550;7.060;2023-04-22T01:24:13;18.00;;;16.10;;
6207;SDS011;3137;51.550;7.060;2023-04-22T01:26:40;20.03;;;16.83;;
6207;SDS011;3137;51.550;7.060;2023-04-22T01:29:06;20.70;;;15.43;;
6207;SDS011;3137;51.550;7.060;2023-04-22T01:31:32;18.33;;;16.30;;
6207;SDS011;3137;51.550;7.060;2023-04-22T01:33:59;20.20;;;17.37;;
6207;SDS011;3137;51.550;7.060;2023-04-22T01:36:27;18.80;;;16.43;;
6207;SDS011;3137;51.550;7.060;2023-04-22T01:38:53;20.47;;;16.17;;
6207;SDS011;3137;51.550;7.060;2023-04-22T01:41:19;17.13;;;15.07;;
6207;SDS011;3137;51.550;7.060;2023-04-22T01:43:46;17.80;;;15.87;;
6207;SDS011;3137;51.550;7.060;2023-04-22T01:46:13;16.73;;;15.00;;
6207;SDS011;3137;51.550;7.060;2023-04-22T01:48:43;16.83;;;14.93;;
6207;SDS011;3137;51.550;7.060;2023-04-22T01:51:15;22.27;;;15.00;;
6207;SDS011;3137;51.550;7.060;2023-04-22T01:53:43;14.63;;;13.13;;
6207;SDS011;3137;51.550;7.060;2023-04-22T01:56:09;17.57;;;15.33;;
6207;SDS011;3137;51.550;7.060;2023-04-22T01:58:37;14.50;;;13.10;;
6207;SDS011;3137;51.550;7.060;2023-04-22T02:01:04;16.83;;;15.20;;
6207;SDS011;3137;51.550;7.060;2023-04-22T02:03:31;15.13;;;13.83;;
6207;SDS011;3137;51.550;7.060;2023-04-22T02:05:58;16.00;;;14.73;;
6207;SDS011;3137;51.550;7.060;2023-04-22T02:08:25;16.83;;;15.03;;
6207;SDS011;3137;51.550;7.060;2023-04-22T02:10:51;15.40;;;13.87;;
6207;SDS011;3137;51.550;7.060;2023-04-22T02:13:17;19.97;;;15.90;;
6207;SDS011;3137;51.550;7.060;2023-04-22T02:15:44;19.90;;;14.80;;
6207;SDS011;3137;51.550;7.060;2023-04-22T02:18:10;17.73;;;15.77;;
6207;SDS011;3137;51.550;7.060;2023-04-22T02:20:36;17.13;;;15.33;;
6207;SDS011;3137;51.550;7.060;2023-04-22T02:23:04;16.73;;;15.07;;
6207;SDS011;3137;51.550;7.060;2023-04-22T02:25:30;15.27;;;13.77;;
6207;SDS011;3137;51.550;7.060;2023-04-22T02:27:57;15.27;;;13.90;;
6207;SDS011;3137;51.550;7.060;2023-04-22T02:30:23;17.93;;;15.10;;
6207;SDS011;3137;51.550;7.060;2023-04-22T02:32:51;17.23;;;15.47;;
6207;SDS011;3137;51.550;7.060;2023-04-22T02:35:18;17.07;;;15.07;;
6207;SDS011;3137;51.550;7.060;2023-04-22T02:37:44;16.83;;;15.40;;
6207;SDS011;3137;51.550;7.060;2023-04-22T02:40:11;16.83;;;15.07;;
6207;SDS011;3137;51.550;7.060;2023-04-22T02:42:37;17.27;;;15.40;;
6207;SDS011;3137;51.550;7.060;2023-04-22T02:45:04;21.83;;;16.70;;
6207;SDS011;3137;51.550;7.060;2023-04-22T02:47:31;18.97;;;17.00;;
6207;SDS011;3137;51.550;7.060;2023-04-22T02:49:57;17.97;;;15.70;;
6207;SDS011;3137;51.550;7.060;2023-04-22T02:52:24;23.90;;;17.57;;
6207;SDS011;3137;51.550;7.060;2023-04-22T02:54:50;20.27;;;18.03;;
6207;SDS011;3137;51.550;7.060;2023-04-22T02:57:17;18.40;;;16.70;;
6207;SDS011;3137;51.550;7.060;2023-04-22T02:59:43;18.40;;;16.63;;
6207;SDS011;3137;51.550;7.060;2023-04-22T03:02:11;17.27;;;15.67;;
6207;SDS011;3137;51.550;7.060;2023-04-22T03:04:55;15.53;;;14.13;;
6207;SDS011;3137;51.550;7.060;2023-04-22T03:07:22;16.57;;;14.87;;
6207;SDS011;3137;51.550;7.060;2023-04-22T03:09:48;18.30;;;16.40;;
6207;SDS011;3137;51.550;7.060;2023-04-22T03:12:15;19.07;;;17.07;;
6207;SDS011;3137;51.550;7.060;2023-04-22T03:14:42;19.50;;;17.50;;
6207;SDS011;3137;51.550;7.060;2023-04-22T03:17:08;18.50;;;16.77;;
6207;SDS011;3137;51.550;7.060;2023-04-22T03:19:35;18.37;;;16.63;;
6207;SDS011;3137;51.550;7.060;2023-04-22T03:22:01;20.47;;;18.00;;
6207;SDS011;3137;51.550;7.060;2023-04-22T03:24:28;19.57;;;17.67;;
6207;SDS011;3137;51.550;7.060;2023-04-22T03:26:54;19.67;;;17.57;;
6207;SDS011;3137;51.550;7.060;2023-04-22T03:29:20;23.87;;;17.90;;
6207;SDS011;3137;51.550;7.060;2023-04-22T03:31:47;17.80;;;15.90;;
6207;SDS011;3137;51.550;7.060;2023-04-22T03:34:13;18.93;;;17.03;;
6207;SDS011;3137;51.550;7.060;2023-04-22T03:36:41;18.33;;;16.57;;
6207;SDS011;3137;51.550;7.060;2023-04-22T03:39:07;18.23;;;15.80;;
6207;SDS011;3137;51.550;7.060;2023-04-22T03:41:34;17.93;;;15.87;;
6207;SDS011;3137;51.550;7.060;2023-04-22T03:44:01;18.73;;;16.70;;
6207;SDS011;3137;51.550;7.060;2023-04-22T03:46:28;23.30;;;18.10;;
6207;SDS011;3137;51.550;7.060;2023-04-22T03:49:04;17.33;;;15.57;;
6207;SDS011;3137;51.550;7.060;2023-04-22T03:51:33;17.03;;;15.27;;
6207;SDS011;3137;51.550;7.060;2023-04-22T03:54:04;16.43;;;14.70;;
6207;SDS011;3137;51.550;7.060;2023-04-22T03:56:33;17.13;;;15.00;;
6207;SDS011;3137;51.550;7.060;2023-04-22T03:59:00;16.97;;;14.53;;
6207;SDS011;3137;51.550;7.060;2023-04-22T04:01:26;16.30;;;14.70;;
6207;SDS011;3137;51.550;7.060;2023-04-22T04:03:57;20.07;;;14.07;;
6207;SDS011;3137;51.550;7.060;2023-04-22T04:06:31;16.70;;;15.10;;
6207;SDS011;3137;51.550;7.060;2023-04-22T04:08:58;17.97;;;15.30;;
6207;SDS011;3137;51.550;7.060;2023-04-22T04:11:26;17.57;;;15.03;;
6207;SDS011;3137;51.550;7.060;2023-04-22T04:13:54;18.47;;;16.50;;
6207;SDS011;3137;51.550;7.060;2023-04-22T04:16:25;17.60;;;15.80;;
6207;SDS011;3137;51.550;7.060;2023-04-22T04:18:59;22.30;;;16.33;;
6207;SDS011;3137;51.550;7.060;2023-04-22T04:21:25;18.13;;;16.37;;
6207;SDS011;3137;51.550;7.060;2023-04-22T04:23:54;15.90;;;14.60;;
6207;SDS011;3137;51.550;7.060;2023-04-22T04:26:24;17.27;;;15.40;;
6207;SDS011;3137;51.550;7.060;2023-04-22T04:28:59;15.87;;;14.27;;
6207;SDS011;3137;51.550;7.060;2023-04-22T04:31:28;16.57;;;14.90;;
6207;SDS011;3137;51.550;7.060;2023-04-22T04:33:57;15.53;;;13.80;;
6207;SDS011;3137;51.550;7.060;2023-04-22T04:36:24;15.03;;;13.63;;
6207;SDS011;3137;51.550;7.060;2023-04-22T04:39:04;15.97;;;14.33;;
6207;SDS011;3137;51.550;7.060;2023-04-22T04:41:31;15.97;;;14.27;;
6207;SDS011;3137;51.550;7.060;2023-04-22T04:43:58;16.53;;;14.23;;
6207;SDS011;3137;51.550;7.060;2023-04-22T04:46:32;17.27;;;14.33;;
6207;SDS011;3137;51.550;7.060;2023-04-22T04:49:01;14.93;;;13.70;;
6207;SDS011;3137;51.550;7.060;2023-04-22T04:51:30;15.40;;;14.07;;
6207;SDS011;3137;51.550;7.060;2023-04-22T04:54:00;18.80;;;13.53;;
6207;SDS011;3137;51.550;7.060;2023-04-22T04:56:32;16.50;;;14.80;;
6207;SDS011;3137;51.550;7.060;2023-04-22T04:58:59;14.57;;;13.27;;
6207;SDS011;3137;51.550;7.060;2023-04-22T05:01:26;15.50;;;14.03;;
6207;SDS011;3137;51.550;7.060;2023-04-22T05:03:56;15.37;;;13.87;;
6207;SDS011;3137;51.550;7.060;2023-04-22T05:06:23;15.47;;;13.93;;
6207;SDS011;3137;51.550;7.060;2023-04-22T05:08:55;15.33;;;13.80;;
6207;SDS011;3137;51.550;7.060;2023-04-22T05:11:22;15.30;;;14.00;;
6207;SDS011;3137;51.550;7.060;2023-04-22T05:13:49;16.43;;;14.83;;
6207;SDS011;3137;51.550;7.060;2023-04-22T05:16:22;13.87;;;12.60;;
6207;SDS011;3137;51.550;7.060;2023-04-22T05:18:49;19.63;;;15.40;;
6207;SDS011;3137;51.550;7.060;2023-04-22T05:21:15;15.70;;;13.67;;
6207;SDS011;3137;51.550;7.060;2023-04-22T05:23:43;15.23;;;13.93;;
6207;SDS011;3137;51.550;7.060;2023-04-22T05:26:10;14.03;;;12.73;;
6207;SDS011;3137;51.550;7.060;2023-04-22T05:28:39;15.97;;;14.37;;
6207;SDS011;3137;51.550;7.060;2023-04-22T05:31:06;15.90;;;12.97;;
6207;SDS011;3137;51.550;7.060;2023-04-22T05:33:32;14.87;;;13.50;;
6207;SDS011;3137;51.550;7.060;2023-04-22T05:35:59;15.10;;;13.67;;
6207;SDS011;3137;51.550;7.060;2023-04-22T05:38:25;15.57;;;14.17;;
6207;SDS011;3137;51.550;7.060;2023-04-22T05:40:54;15.67;;;14.27;;
6207;SDS011;3137;51.550;7.060;2023-04-22T05:43:20;16.27;;;14.73;;
6207;SDS011;3137;51.550;7.060;2023-04-22T05:45:56;13.70;;;12.53;;
6207;SDS011;3137;51.550;7.060;2023-04-22T05:48:22;14.80;;;13.40;;
6207;SDS011;3137;51.550;7.060;2023-04-22T05:50:58;13.93;;;12.70;;
6207;SDS011;3137;51.550;7.060;2023-04-22T05:53:27;14.53;;;13.00;;
6207;SDS011;3137;51.550;7.060;2023-04-22T05:55:54;14.17;;;13.10;;
6207;SDS011;3137;51.550;7.060;2023-04-22T05:58:21;12.90;;;11.77;;
6207;SDS011;3137;51.550;7.060;2023-04-22T06:00:51;14.33;;;13.03;;
6207;SDS011;3137;51.550;7.060;2023-04-22T06:03:40;13.17;;;12.23;;
6207;SDS011;3137;51.550;7.060;2023-04-22T06:06:07;14.47;;;13.30;;
6207;SDS011;3137;51.550;7.060;2023-04-22T06:08:33;12.87;;;11.83;;
6207;SDS011;3137;51.550;7.060;2023-04-22T06:11:00;12.00;;;11.20;;
6207;SDS011;3137;51.550;7.060;2023-04-22T06:13:29;13.07;;;12.07;;
6207;SDS011;3137;51.550;7.060;2023-04-22T06:15:56;15.47;;;13.97;;
6207;SDS011;3137;51.550;7.060;2023-04-22T06:18:23;15.10;;;13.93;;
6207;SDS011;3137;51.550;7.060;2023-04-22T06:20:53;14.67;;;13.00;;
6207;SDS011;3137;51.550;7.060;2023-04-22T06:23:20;14.53;;;12.77;;
6207;SDS011;3137;51.550;7.060;2023-04-22T06:25:46;14.83;;;13.37;;
6207;SDS011;3137;51.550;7.060;2023-04-22T06:28:14;15.60;;;14.23;;
6207;SDS011;3137;51.550;7.060;2023-04-22T06:30:42;15.13;;;13.77;;
6207;SDS011;3137;51.550;7.060;2023-04-22T06:33:09;14.43;;;12.93;;
6207;SDS011;3137;51.550;7.060;2023-04-22T06:35:35;14.67;;;13.27;;
6207;SDS011;3137;51.550;7.060;2023-04-22T06:38:01;14.47;;;12.83;;
6207;SDS011;3137;51.550;7.060;2023-04-22T06:40:34;15.20;;;13.60;;
6207;SDS011;3137;51.550;7.060;2023-04-22T06:43:13;13.13;;;12.07;;
6207;SDS011;3137;51.550;7.060;2023-04-22T06:46:06;15.67;;;14.13;;
6207;SDS011;3137;51.550;7.060;2023-04-22T06:48:38;14.40;;;13.20;;
6207;SDS011;3137;51.550;7.060;2023-04-22T06:51:23;15.23;;;12.77;;
6207;SDS011;3137;51.550;7.060;2023-04-22T06:53:49;13.90;;;12.87;;
6207;SDS011;3137;51.550;7.060;2023-04-22T06:56:16;13.90;;;12.60;;
6207;SDS011;3137;51.550;7.060;2023-04-22T06:58:42;13.17;;;12.17;;
6207;SDS011;3137;51.550;7.060;2023-04-22T07:01:09;13.97;;;12.63;;
6207;SDS011;3137;51.550;7.060;2023-04-22T07:03:38;15.33;;;13.77;;
6207;SDS011;3137;51.550;7.060;2023-04-22T07:06:08;13.90;;;12.60;;
6207;SDS011;3137;51.550;7.060;2023-04-22T07:08:35;13.87;;;12.27;;
6207;SDS011;3137;51.550;7.060;2023-04-22T07:11:01;13.83;;;12.60;;
6207;SDS011;3137;51.550;7.060;2023-04-22T07:13:37;14.57;;;12.33;;
6207;SDS011;3137;51.550;7.060;2023-04-22T07:16:04;12.97;;;11.93;;
6207;SDS011;3137;51.550;7.060;2023-04-22T07:18:31;11.73;;;10.87;;
6207;SDS011;3137;51.550;7.060;2023-04-22T07:20:57;12.93;;;11.63;;
6207;SDS011;3137;51.550;7.060;2023-04-22T07:23:23;11.10;;;10.40;;
6207;SDS011;3137;51.550;7.060;2023-04-22T07:25:50;11.27;;;10.47;;
6207;SDS011;3137;51.550;7.060;2023-04-22T07:28:16;11.20;;;10.30;;
6207;SDS011;3137;51.550;7.060;2023-04-22T07:30:43;11.33;;;10.53;;
6207;SDS011;3137;51.550;7.060;2023-04-22T07:33:09;10.27;;;9.63;;
6207;SDS011;3137;51.550;7.060;2023-04-22T07:35:36;10.93;;;10.03;;
6207;SDS011;3137;51.550;7.060;2023-04-22T07:38:02;11.13;;;9.93;;
6207;SDS011;3137;51.550;7.060;2023-04-22T07:40:28;9.73;;;8.90;;
6207;SDS011;3137;51.550;7.060;2023-04-22T07:42:55;8.67;;;8.20;;
6207;SDS011;3137;51.550;7.060;2023-04-22T07:45:21;7.73;;;7.53;;
6207;SDS011;3137;51.550;7.060;2023-04-22T07:47:48;10.43;;;7.07;;
6207;SDS011;3137;51.550;7.060;2023-04-22T07:50:15;8.23;;;7.93;;
6207;SDS011;3137;51.550;7.060;2023-04-22T07:52:41;6.77;;;6.47;;
6207;SDS011;3137;51.550;7.060;2023-04-22T07:55:07;6.83;;;6.43;;
6207;SDS011;3137;51.550;7.060;2023-04-22T07:57:34;16.47;;;14.63;;
6207;SDS011;3137;51.550;7.060;2023-04-22T08:00:06;6.70;;;6.17;;
6207;SDS011;3137;51.550;7.060;2023-04-22T08:02:37;6.07;;;5.63;;
6207;SDS011;3137;51.550;7.060;2023-04-22T08:05:04;4.37;;;4.17;;
6207;SDS011;3137;51.550;7.060;2023-04-22T08:07:31;4.77;;;4.63;;
6207;SDS011;3137;51.550;7.060;2023-04-22T08:09:59;4.23;;;4.13;;
6207;SDS011;3137;51.550;7.060;2023-04-22T08:12:25;3.77;;;3.77;;
6207;SDS011;3137;51.550;7.060;2023-04-22T08:14:52;8.93;;;3.40;;
6207;SDS011;3137;51.550;7.060;2023-04-22T08:17:19;3.33;;;3.33;;
6207;SDS011;3137;51.550;7.060;2023-04-22T08:19:47;4.67;;;4.37;;
6207;SDS011;3137;51.550;7.060;2023-04-22T08:22:14;3.30;;;3.30;;
6207;SDS011;3137;51.550;7.060;2023-04-22T08:24:42;3.37;;;3.27;;
6207;SDS011;3137;51.550;7.060;2023-04-22T08:27:09;3.37;;;3.27;;
6207;SDS011;3137;51.550;7.060;2023-04-22T08:29:36;3.30;;;3.30;;
6207;SDS011;3137;51.550;7.060;2023-04-22T08:32:03;3.43;;;3.27;;
6207;SDS011;3137;51.550;7.060;2023-04-22T08:34:30;4.17;;;3.63;;
6207;SDS011;3137;51.550;7.060;2023-04-22T08:36:56;3.43;;;3.33;;
6207;SDS011;3137;51.550;7.060;2023-04-22T08:39:23;3.03;;;3.03;;
6207;SDS011;3137;51.550;7.060;2023-04-22T08:41:49;3.30;;;3.30;;
6207;SDS011;3137;51.550;7.060;2023-04-22T08:44:16;3.20;;;2.90;;
6207;SDS011;3137;51.550;7.060;2023-04-22T08:46:44;2.70;;;2.70;;
6207;SDS011;3137;51.550;7.060;2023-04-22T08:49:14;6.67;;;3.40;;
6207;SDS011;3137;51.550;7.060;2023-04-22T08:51:41;3.70;;;3.40;;
6207;SDS011;3137;51.550;7.060;2023-04-22T08:54:09;2.67;;;2.67;;
6207;SDS011;3137;51.550;7.060;2023-04-22T08:56:37;5.70;;;3.60;;
6207;SDS011;3137;51.550;7.060;2023-04-22T08:59:09;9.20;;;2.97;;
6207;SDS011;3137;51.550;7.060;2023-04-22T09:01:40;2.73;;;2.67;;
6207;SDS011;3137;51.550;7.060;2023-04-22T09:04:08;2.67;;;2.67;;
6207;SDS011;3137;51.550;7.060;2023-04-22T09:06:36;2.50;;;2.50;;
6207;SDS011;3137;51.550;7.060;2023-04-22T09:09:03;3.40;;;3.37;;
6207;SDS011;3137;51.550;7.060;2023-04-22T09:11:30;2.53;;;2.47;;
6207;SDS011;3137;51.550;7.060;2023-04-22T09:13:57;2.60;;;2.60;;
6207;SDS011;3137;51.550;7.060;2023-04-22T09:16:23;4.00;;;3.30;;
6207;SDS011;3137;51.550;7.060;2023-04-22T09:18:50;3.03;;;3.03;;
6207;SDS011;3137;51.550;7.060;2023-04-22T09:21:16;2.30;;;2.30;;
6207;SDS011;3137;51.550;7.060;2023-04-22T09:23:47;2.90;;;2.80;;
6207;SDS011;3137;51.550;7.060;2023-04-22T09:26:18;2.73;;;2.63;;
6207;SDS011;3137;51.550;7.060;2023-04-22T09:31:23;11.90;;;2.50;;
6207;SDS011;3137;51.550;7.060;2023-04-22T09:33:52;7.00;;;2.70;;
6207;SDS011;3137;51.550;7.060;2023-04-22T09:36:25;3.00;;;2.90;;
6207;SDS011;3137;51.550;7.060;2023-04-22T09:38:56;2.80;;;2.80;;
6207;SDS011;3137;51.550;7.060;2023-04-22T09:41:28;2.90;;;2.90;;
6207;SDS011;3137;51.550;7.060;2023-04-22T09:43:59;6.33;;;2.90;;
6207;SDS011;3137;51.550;7.060;2023-04-22T09:46:27;2.40;;;2.40;;
6207;SDS011;3137;51.550;7.060;2023-04-22T09:48:55;2.50;;;2.50;;
6207;SDS011;3137;51.550;7.060;2023-04-22T09:51:22;2.73;;;2.50;;
6207;SDS011;3137;51.550;7.060;2023-04-22T09:56:46;2.90;;;2.90;;
6207;SDS011;3137;51.550;7.060;2023-04-22T09:59:24;2.90;;;2.90;;
6207;SDS011;3137;51.550;7.060;2023-04-22T10:01:59;3.10;;;3.10;;
6207;SDS011;3137;51.550;7.060;2023-04-22T10:04:29;5.27;;;4.30;;
6207;SDS011;3137;51.550;7.060;2023-04-22T10:06:56;3.77;;;3.47;;
6207;SDS011;3137;51.550;7.060;2023-04-22T10:09:23;2.53;;;2.53;;
6207;SDS011;3137;51.550;7.060;2023-04-22T10:11:51;3.67;;;2.93;;
6207;SDS011;3137;51.550;7.060;2023-04-22T10:14:22;2.50;;;2.50;;
6207;SDS011;3137;51.550;7.060;2023-04-22T10:16:51;2.70;;;2.70;;
6207;SDS011;3137;51.550;7.060;2023-04-22T10:19:22;4.10;;;2.60;;
6207;SDS011;3137;51.550;7.060;2023-04-22T10:21:51;2.90;;;2.70;;
6207;SDS011;3137;51.550;7.060;2023-04-22T10:24:23;2.73;;;2.73;;
6207;SDS011;3137;51.550;7.060;2023-04-22T10:26:55;2.80;;;2.70;;
6207;SDS011;3137;51.550;7.060;2023-04-22T10:29:34;2.93;;;2.93;;
6207;SDS011;3137;51.550;7.060;2023-04-22T10:34:45;2.37;;;2.37;;
6207;SDS011;3137;51.550;7.060;2023-04-22T10:37:12;2.33;;;2.33;;
6207;SDS011;3137;51.550;7.060;2023-04-22T10:39:40;2.77;;;2.77;;
6207;SDS011;3137;51.550;7.060;2023-04-22T10:42:09;3.30;;;3.20;;
6207;SDS011;3137;51.550;7.060;2023-04-22T10:44:46;3.23;;;3.23;;
6207;SDS011;3137;51.550;7.060;2023-04-22T10:47:24;2.80;;;2.80;;
6207;SDS011;3137;51.550;7.060;2023-04-22T10:49:51;2.97;;;2.87;;
6207;SDS011;3137;51.550;7.060;2023-04-22T10:52:59;3.33;;;3.23;;
6207;SDS011;3137;51.550;7.060;2023-04-22T10:55:49;2.60;;;2.60;;
6207;SDS011;3137;51.550;7.060;2023-04-22T10:58:18;3.57;;;3.27;;
6207;SDS011;3137;51.550;7.060;2023-04-22T11:00:46;2.33;;;2.33;;
6207;SDS011;3137;51.550;7.060;2023-04-22T11:03:23;2.20;;;2.20;;
6207;SDS011;3137;51.550;7.060;2023-04-22T11:08:38;4.73;;;2.80;;
6207;SDS011;3137;51.550;7.060;2023-04-22T11:11:09;3.10;;;3.00;;
6207;SDS011;3137;51.550;7.060;2023-04-22T11:13:36;2.63;;;2.45;;
6207;SDS011;3137;51.550;7.060;2023-04-22T11:16:02;8.67;;;3.27;;
6207;SDS011;3137;51.550;7.060;2023-04-22T11:18:33;2.67;;;2.58;;
6207;SDS011;3137;51.550;7.060;2023-04-22T11:21:01;6.72;;;2.40;;
6207;SDS011;3137;51.550;7.060;2023-04-22T11:23:31;2.85;;;2.60;;
6207;SDS011;3137;51.550;7.060;2023-04-22T11:25:58;2.72;;;2.70;;
6207;SDS011;3137;51.550;7.060;2023-04-22T11:28:27;4.70;;;2.80;;
6207;SDS011;3137;51.550;7.060;2023-04-22T11:31:03;3.23;;;3.10;;
6207;SDS011;3137;51.550;7.060;2023-04-22T11:33:32;3.47;;;3.17;;
6207;SDS011;3137;51.550;7.060;2023-04-22T11:35:59;3.37;;;3.27;;
6207;SDS011;3137;51.550;7.060;2023-04-22T11:38:26;3.83;;;3.73;;
6207;SDS011;3137;51.550;7.060;2023-04-22T11:40:53;3.50;;;3.40;;
6207;SDS011;3137;51.550;7.060;2023-04-22T11:43:20;4.30;;;3.97;;
6207;SDS011;3137;51.550;7.060;2023-04-22T11:45:46;3.43;;;3.27;;
6207;SDS011;3137;51.550;7.060;2023-04-22T11:48:13;6.50;;;4.05;;
6207;SDS011;3137;51.550;7.060;2023-04-22T11:50:40;3.43;;;3.27;;
6207;SDS011;3137;51.550;7.060;2023-04-22T11:53:16;4.13;;;4.00;;
6207;SDS011;3137;51.550;7.060;2023-04-22T11:55:44;5.10;;;4.83;;
6207;SDS011;3137;51.550;7.060;2023-04-22T12:05:42;3.63;;;3.57;;
6207;SDS011;3137;51.550;7.060;2023-04-22T12:08:15;6.23;;;3.50;;
6207;SDS011;3137;51.550;7.060;2023-04-22T12:10:44;4.23;;;4.03;;
6207;SDS011;3137;51.550;7.060;2023-04-22T12:13:23;3.23;;;3.23;;
6207;SDS011;3137;51.550;7.060;2023-04-22T12:16:02;3.80;;;3.63;;
6207;SDS011;3137;51.550;7.060;2023-04-22T12:18:33;4.00;;;3.90;;
6207;SDS011;3137;51.550;7.060;2023-04-22T12:23:39;3.20;;;3.20;;
6207;SDS011;3137;51.550;7.060;2023-04-22T12:26:14;4.20;;;4.00;;
6207;SDS011;3137;51.550;7.060;2023-04-22T12:28:41;3.13;;;3.13;;
6207;SDS011;3137;51.550;7.060;2023-04-22T12:31:09;3.73;;;3.63;;
6207;SDS011;3137;51.550;7.060;2023-04-22T12:33:36;4.90;;;3.30;;
6207;SDS011;3137;51.550;7.060;2023-04-22T12:36:03;3.70;;;3.00;;
6207;SDS011;3137;51.550;7.060;2023-04-22T12:38:31;3.20;;;3.10;;
6207;SDS011;3137;51.550;7.060;2023-04-22T12:40:57;3.10;;;3.10;;
6207;SDS011;3137;51.550;7.060;2023-04-22T12:43:24;3.57;;;3.40;;
6207;SDS011;3137;51.550;7.060;2023-04-22T12:45:51;2.87;;;2.87;;
6207;SDS011;3137;51.550;7.060;2023-04-22T12:48:17;3.57;;;3.37;;
6207;SDS011;3137;51.550;7.060;2023-04-22T12:50:44;3.50;;;3.50;;
6207;SDS011;3137;51.550;7.060;2023-04-22T12:53:10;4.60;;;3.77;;
6207;SDS011;3137;51.550;7.060;2023-04-22T12:55:36;6.77;;;3.17;;
6207;SDS011;3137;51.550;7.060;2023-04-22T12:58:03;3.57;;;3.27;;
6207;SDS011;3137;51.550;7.060;2023-04-22T13:00:29;3.27;;;3.17;;
6207;SDS011;3137;51.550;7.060;2023-04-22T13:02:56;3.47;;;3.30;;
6207;SDS011;3137;51.550;7.060;2023-04-22T13:05:23;9.53;;;3.63;;
6207;SDS011;3137;51.550;7.060;2023-04-22T13:07:50;3.63;;;3.10;;
6207;SDS011;3137;51.550;7.060;2023-04-22T13:10:32;3.33;;;3.33;;
6207;SDS011;3137;51.550;7.060;2023-04-22T13:12:59;3.77;;;3.67;;
6207;SDS011;3137;51.550;7.060;2023-04-22T13:15:40;3.13;;;3.13;;
6207;SDS011;3137;51.550;7.060;2023-04-22T13:18:07;3.93;;;3.10;;
6207;SDS011;3137;51.550;7.060;2023-04-22T13:20:33;3.20;;;3.10;;
6207;SDS011;3137;51.550;7.060;2023-04-22T13:23:00;3.73;;;3.33;;
6207;SDS011;3137;51.550;7.060;2023-04-22T13:25:27;3.90;;;3.80;;
6207;SDS011;3137;51.550;7.060;2023-04-22T13:27:53;3.40;;;3.40;;
6207;SDS011;3137;51.550;7.060;2023-04-22T13:30:20;3.60;;;3.50;;
6207;SDS011;3137;51.550;7.060;2023-04-22T13:32:46;3.20;;;3.20;;
6207;SDS011;3137;51.550;7.060;2023-04-22T13:35:13;3.90;;;3.70;;
6207;SDS011;3137;51.550;7.060;2023-04-22T13:37:39;3.50;;;3.40;;
6207;SDS011;3137;51.550;7.060;2023-04-22T13:40:05;3.30;;;3.00;;
6207;SDS011;3137;51.550;7.060;2023-04-22T13:42:33;4.00;;;3.80;;
6207;SDS011;3137;51.550;7.060;2023-04-22T13:45:00;3.80;;;3.60;;
6207;SDS011;3137;51.550;7.060;2023-04-22T13:47:26;3.50;;;3.50;;
6207;SDS011;3137;51.550;7.060;2023-04-22T13:49:52;5.13;;;3.47;;
6207;SDS011;3137;51.550;7.060;2023-04-22T13:52:19;4.80;;;4.60;;
6207;SDS011;3137;51.550;7.060;2023-04-22T13:54:45;6.00;;;3.90;;
6207;SDS011;3137;51.550;7.060;2023-04-22T13:57:12;3.87;;;3.77;;
6207;SDS011;3137;51.550;7.060;2023-04-22T13:59:39;4.00;;;4.00;;
6207;SDS011;3137;51.550;7.060;2023-04-22T14:02:06;4.10;;;3.80;;
6207;SDS011;3137;51.550;7.060;2023-04-22T14:04:33;4.30;;;3.93;;
6207;SDS011;3137;51.550;7.060;2023-04-22T14:06:59;4.50;;;4.17;;
6207;SDS011;3137;51.550;7.060;2023-04-22T14:09:26;4.03;;;3.63;;
6207;SDS011;3137;51.550;7.060;2023-04-22T14:11:52;4.50;;;4.37;;
6207;SDS011;3137;51.550;7.060;2023-04-22T14:14:19;5.00;;;4.23;;
6207;SDS011;3137;51.550;7.060;2023-04-22T14:16:45;4.37;;;4.30;;
6207;SDS011;3137;51.550;7.060;2023-04-22T14:19:12;3.70;;;3.70;;
6207;SDS011;3137;51.550;7.060;2023-04-22T14:21:39;3.57;;;3.53;;
6207;SDS011;3137;51.550;7.060;2023-04-22T14:24:05;3.50;;;3.50;;
6207;SDS011;3137;51.550;7.060;2023-04-22T14:26:32;4.10;;;3.93;;
6207;SDS011;3137;51.550;7.060;2023-04-22T14:28:58;5.97;;;5.30;;
6207;SDS011;3137;51.550;7.060;2023-04-22T14:31:25;3.30;;;3.27;;
6207;SDS011;3137;51.550;7.060;2023-04-22T14:33:51;11.03;;;3.43;;
6207;SDS011;3137;51.550;7.060;2023-04-22T14:36:18;2.70;;;2.70;;
6207;SDS011;3137;51.550;7.060;2023-04-22T14:38:44;2.87;;;2.77;;
6207;SDS011;3137;51.550;7.060;2023-04-22T14:41:11;2.67;;;2.67;;
6207;SDS011;3137;51.550;7.060;2023-04-22T14:43:37;2.97;;;2.87;;
6207;SDS011;3137;51.550;7.060;2023-04-22T14:46:04;2.47;;;2.37;;
6207;SDS011;3137;51.550;7.060;2023-04-22T14:48:30;2.43;;;2.33;;
6207;SDS011;3137;51.550;7.060;2023-04-22T14:50:57;8.43;;;2.47;;
6207;SDS011;3137;51.550;7.060;2023-04-22T14:53:24;7.80;;;7.50;;
6207;SDS011;3137;51.550;7.060;2023-04-22T14:55:51;3.07;;;2.93;;
6207;SDS011;3137;51.550;7.060;2023-04-22T14:58:17;3.23;;;3.23;;
6207;SDS011;3137;51.550;7.060;2023-04-22T15:00:44;3.17;;;2.97;;
6207;SDS011;3137;51.550;7.060;2023-04-22T15:03:12;2.90;;;2.70;;
6207;SDS011;3137;51.550;7.060;2023-04-22T15:05:38;2.87;;;2.87;;
6207;SDS011;3137;51.550;7.060;2023-04-22T15:08:05;3.53;;;3.53;;
6207;SDS011;3137;51.550;7.060;2023-04-22T15:10:31;3.40;;;3.10;;
6207;SDS011;3137;51.550;7.060;2023-04-22T15:12:58;3.20;;;3.10;;
6207;SDS011;3137;51.550;7.060;2023-04-22T15:15:25;2.73;;;2.73;;
6207;SDS011;3137;51.550;7.060;2023-04-22T15:17:51;3.17;;;3.17;;
6207;SDS011;3137;51.550;7.060;2023-04-22T15:20:18;3.50;;;3.50;;
6207;SDS011;3137;51.550;7.060;2023-04-22T15:22:45;3.17;;;3.17;;
6207;SDS011;3137;51.550;7.060;2023-04-22T15:25:11;3.20;;;3.20;;
6207;SDS011;3137;51.550;7.060;2023-04-22T15:27:38;3.47;;;3.30;;